OERKOEGS

Guest
Details From OERK - Riyadh King Khaled Intl
To OEGS - GASSIM
Flight Number -
Tags generated
Created
Modified
Stats Distance 178 nm / 329 km
Max Altitude 18,600 ft / 5,669 m
Waypoints 4
Social Downloads 1
Likes 0
Share VATSIM

Download

Looking for another format? Having issues loading an existing format? Contact us
Advertisement - Login to hide

Notes

Basic altitude profile: - Ascent Rate: 2500ft/min - Ascent Speed: 250kts - Cruise Altitude: 9000ft - Cruise Speed: 180kts - Descent Rate: 1500ft/min - Descent Speed: 250kts Options: - Use NATs: yes - Use PACOTS: yes - Use low airways: no - Use high airways: yes

Route

OERK VELOS G662 KUSRO OEGS

ID Type Via Altitude Latitude Longitude Leg Dist Tot Dist Heading (true) Name
O OERK APT - 0 ft / 0 m 24.95745˚ 46.69884˚ - 0 nm - Riyadh King Khaled Intl
VELOS FIX - 18,600 ft / 5,669 m 25.35722˚ 45.78667˚ 55 nm 55 nm 296° / 296° -
KUSRO FIX G662 (AWY-HI) 14,000 ft / 4,267 m 25.86056˚ 44.72444˚ 64 nm 120 nm 298° / 297° -
O OEGS APT - 0 ft / 0 m 26.30282˚ 43.77391˚ 57 nm 177 nm 298° / 297° GASSIM

Altitude Profile

Advertisement - Login to hide

Weather


0- 5 10 15 20 25 30 35+ Temperature / ° C

Clouds and Precipitation
Forecast for 2017-12-15 06:00 UTC. Updated an hour ago

Ground ~20,000 ft ~40,000 ft Winds

OERK

Details ICAO OERK (RUH)
Name Riyadh King Khaled Intl
Region Saudi Arabia
Timezone Asia/Riyadh (UTC+3.0)
Stats Elevation 2,049 ft / 625 m (AMSL)
Location 24.957449° 46.698842°
Runways 2
Magnetic Variation 3.041° E

METAR

OERK 150400Z 30007KT 6000 NSC 09/M05 Q1018 NOSIG

Decode

TAF

Not found

Departure Runways

ID Width Length Bearing (true) Bearing (mag) Surface Threshold Offset Overrun Length
15L 197 ft / 60 m 13,832 ft / 4,216 m 150.17° 147.13° Asphalt 0 ft / 0 m 385 ft / 117 m
15R 197 ft / 60 m 13,835 ft / 4,217 m 150.16° 147.12° Asphalt 0 ft / 0 m 385 ft / 117 m
33L 197 ft / 60 m 13,835 ft / 4,217 m 330.17° 327.13° Asphalt 0 ft / 0 m 385 ft / 117 m
33R 197 ft / 60 m 13,832 ft / 4,216 m 330.18° 327.14° Asphalt 0 ft / 0 m 385 ft / 117 m

OEGS

Details ICAO OEGS (ELQ)
Name GASSIM
Region Saudi Arabia
Timezone Asia/Riyadh (UTC+3.0)
Stats Elevation 2,126 ft / 648 m (AMSL)
Location 26.302823° 43.773911°
Runways 1
Magnetic Variation 3.564° E

METAR

OEGS 150400Z 22001KT CAVOK 09/06 Q1017

Decode

TAF

Not found

Destination Runways

ID Width Length Bearing (true) Bearing (mag) Surface Threshold Offset Overrun Length
15 147 ft / 45 m 9,858 ft / 3,005 m 152.76° 149.20° Asphalt 0 ft / 0 m 992 ft / 302 m
33 147 ft / 45 m 9,858 ft / 3,005 m 332.76° 329.20° Asphalt 0 ft / 0 m 984 ft / 300 m

Approach Navaids

Runway Type Ident Frequency Range Bearing (true) Bearing (mag) Slope Elevation
15 Localiser IGAS 110.10 MHz 18 nm / 33 km 152.53° 148.97° - 2,120 ft / 646 m (AMSL)
15 Glidescope IGAS 110.10 MHz 10 nm / 19 km 152.76° 149.19° 3.00° 2,126 ft / 648 m (AMSL)

Popular Alternatives